sensor_id;sensor_type;location;lat;lon;timestamp;P1;durP1;ratioP1;P2;durP2;ratioP2
17201;SDS011;8717;53.588;10.176;2024-02-23T00:01:58;1.63;;;0.50;;
17201;SDS011;8717;53.588;10.176;2024-02-23T00:04:25;1.17;;;0.60;;
17201;SDS011;8717;53.588;10.176;2024-02-23T00:06:52;2.37;;;0.67;;
17201;SDS011;8717;53.588;10.176;2024-02-23T00:09:20;1.50;;;0.70;;
17201;SDS011;8717;53.588;10.176;2024-02-23T00:11:52;3.27;;;0.73;;
17201;SDS011;8717;53.588;10.176;2024-02-23T00:14:19;4.30;;;0.90;;
17201;SDS011;8717;53.588;10.176;2024-02-23T00:16:46;4.63;;;0.97;;
17201;SDS011;8717;53.588;10.176;2024-02-23T00:19:13;1.60;;;0.63;;
17201;SDS011;8717;53.588;10.176;2024-02-23T00:21:45;3.97;;;1.37;;
17201;SDS011;8717;53.588;10.176;2024-02-23T00:24:16;2.57;;;0.90;;
17201;SDS011;8717;53.588;10.176;2024-02-23T00:26:47;2.00;;;0.80;;
17201;SDS011;8717;53.588;10.176;2024-02-23T00:29:16;2.17;;;0.97;;
17201;SDS011;8717;53.588;10.176;2024-02-23T00:31:43;1.20;;;0.70;;
17201;SDS011;8717;53.588;10.176;2024-02-23T00:34:11;2.03;;;0.70;;
17201;SDS011;8717;53.588;10.176;2024-02-23T00:36:38;0.80;;;0.60;;
17201;SDS011;8717;53.588;10.176;2024-02-23T00:39:06;1.00;;;0.50;;
17201;SDS011;8717;53.588;10.176;2024-02-23T00:41:33;1.07;;;0.60;;
17201;SDS011;8717;53.588;10.176;2024-02-23T00:44:01;0.70;;;0.50;;
17201;SDS011;8717;53.588;10.176;2024-02-23T00:46:29;0.43;;;0.43;;
17201;SDS011;8717;53.588;10.176;2024-02-23T00:48:56;1.57;;;0.60;;
17201;SDS011;8717;53.588;10.176;2024-02-23T00:51:23;0.60;;;0.50;;
17201;SDS011;8717;53.588;10.176;2024-02-23T00:53:50;1.80;;;0.60;;
17201;SDS011;8717;53.588;10.176;2024-02-23T00:56:17;0.97;;;0.40;;
17201;SDS011;8717;53.588;10.176;2024-02-23T00:58:44;0.90;;;0.50;;
17201;SDS011;8717;53.588;10.176;2024-02-23T01:01:12;1.73;;;0.57;;
17201;SDS011;8717;53.588;10.176;2024-02-23T01:03:38;5.23;;;0.60;;
17201;SDS011;8717;53.588;10.176;2024-02-23T01:06:05;0.30;;;0.30;;
17201;SDS011;8717;53.588;10.176;2024-02-23T01:08:32;1.13;;;0.60;;
17201;SDS011;8717;53.588;10.176;2024-02-23T01:10:59;0.60;;;0.30;;
17201;SDS011;8717;53.588;10.176;2024-02-23T01:13:26;0.73;;;0.30;;
17201;SDS011;8717;53.588;10.176;2024-02-23T01:15:53;1.50;;;0.30;;
17201;SDS011;8717;53.588;10.176;2024-02-23T01:18:21;0.30;;;0.30;;
17201;SDS011;8717;53.588;10.176;2024-02-23T01:20:48;0.73;;;0.20;;
17201;SDS011;8717;53.588;10.176;2024-02-23T01:23:15;0.73;;;0.30;;
17201;SDS011;8717;53.588;10.176;2024-02-23T01:25:42;0.30;;;0.30;;
17201;SDS011;8717;53.588;10.176;2024-02-23T01:28:09;1.23;;;0.30;;
17201;SDS011;8717;53.588;10.176;2024-02-23T01:30:36;0.30;;;0.20;;
17201;SDS011;8717;53.588;10.176;2024-02-23T01:33:03;1.90;;;0.60;;
17201;SDS011;8717;53.588;10.176;2024-02-23T01:35:32;3.03;;;0.50;;
17201;SDS011;8717;53.588;10.176;2024-02-23T01:37:59;1.20;;;0.40;;
17201;SDS011;8717;53.588;10.176;2024-02-23T01:40:26;0.33;;;0.30;;
17201;SDS011;8717;53.588;10.176;2024-02-23T01:43:00;1.03;;;0.40;;
17201;SDS011;8717;53.588;10.176;2024-02-23T01:45:28;2.13;;;0.50;;
17201;SDS011;8717;53.588;10.176;2024-02-23T01:47:55;2.13;;;0.40;;
17201;SDS011;8717;53.588;10.176;2024-02-23T01:50:22;0.60;;;0.30;;
17201;SDS011;8717;53.588;10.176;2024-02-23T01:52:51;3.30;;;0.70;;
17201;SDS011;8717;53.588;10.176;2024-02-23T01:55:19;1.20;;;0.60;;
17201;SDS011;8717;53.588;10.176;2024-02-23T01:57:46;1.37;;;0.40;;
17201;SDS011;8717;53.588;10.176;2024-02-23T02:00:15;1.70;;;0.60;;
17201;SDS011;8717;53.588;10.176;2024-02-23T02:02:49;0.87;;;0.40;;
17201;SDS011;8717;53.588;10.176;2024-02-23T02:05:17;0.50;;;0.40;;
17201;SDS011;8717;53.588;10.176;2024-02-23T02:07:44;0.40;;;0.40;;
17201;SDS011;8717;53.588;10.176;2024-02-23T02:10:14;0.40;;;0.37;;
17201;SDS011;8717;53.588;10.176;2024-02-23T02:12:41;0.30;;;0.30;;
17201;SDS011;8717;53.588;10.176;2024-02-23T02:15:08;0.30;;;0.30;;
17201;SDS011;8717;53.588;10.176;2024-02-23T02:17:35;0.40;;;0.30;;
17201;SDS011;8717;53.588;10.176;2024-02-23T02:20:02;0.97;;;0.30;;
17201;SDS011;8717;53.588;10.176;2024-02-23T02:22:31;0.20;;;0.20;;
17201;SDS011;8717;53.588;10.176;2024-02-23T02:24:58;1.70;;;0.23;;
17201;SDS011;8717;53.588;10.176;2024-02-23T02:27:27;1.47;;;0.27;;
17201;SDS011;8717;53.588;10.176;2024-02-23T02:29:53;1.27;;;0.20;;
17201;SDS011;8717;53.588;10.176;2024-02-23T02:32:20;0.40;;;0.40;;
17201;SDS011;8717;53.588;10.176;2024-02-23T02:34:47;0.97;;;0.20;;
17201;SDS011;8717;53.588;10.176;2024-02-23T02:37:14;0.20;;;0.20;;
17201;SDS011;8717;53.588;10.176;2024-02-23T02:39:41;0.57;;;0.20;;
17201;SDS011;8717;53.588;10.176;2024-02-23T02:42:08;0.20;;;0.20;;
17201;SDS011;8717;53.588;10.176;2024-02-23T02:44:37;0.20;;;0.20;;
17201;SDS011;8717;53.588;10.176;2024-02-23T02:47:04;0.40;;;0.20;;
17201;SDS011;8717;53.588;10.176;2024-02-23T02:49:31;0.10;;;0.10;;
17201;SDS011;8717;53.588;10.176;2024-02-23T02:51:58;0.30;;;0.17;;
17201;SDS011;8717;53.588;10.176;2024-02-23T02:54:24;0.10;;;0.10;;
17201;SDS011;8717;53.588;10.176;2024-02-23T02:56:51;0.40;;;0.20;;
17201;SDS011;8717;53.588;10.176;2024-02-23T02:59:19;0.20;;;0.10;;
17201;SDS011;8717;53.588;10.176;2024-02-23T03:01:47;0.30;;;0.20;;
17201;SDS011;8717;53.588;10.176;2024-02-23T03:04:14;0.10;;;0.10;;
17201;SDS011;8717;53.588;10.176;2024-02-23T03:06:41;0.10;;;0.10;;
17201;SDS011;8717;53.588;10.176;2024-02-23T03:09:08;0.30;;;0.10;;
17201;SDS011;8717;53.588;10.176;2024-02-23T03:11:35;0.20;;;0.20;;
17201;SDS011;8717;53.588;10.176;2024-02-23T03:14:02;0.30;;;0.20;;
17201;SDS011;8717;53.588;10.176;2024-02-23T03:16:29;0.20;;;0.20;;
17201;SDS011;8717;53.588;10.176;2024-02-23T03:18:57;0.67;;;0.30;;
17201;SDS011;8717;53.588;10.176;2024-02-23T03:21:24;1.07;;;0.30;;
17201;SDS011;8717;53.588;10.176;2024-02-23T03:23:51;1.43;;;0.43;;
17201;SDS011;8717;53.588;10.176;2024-02-23T03:26:18;1.37;;;0.30;;
17201;SDS011;8717;53.588;10.176;2024-02-23T03:28:45;0.73;;;0.30;;
17201;SDS011;8717;53.588;10.176;2024-02-23T03:31:13;2.27;;;0.60;;
17201;SDS011;8717;53.588;10.176;2024-02-23T03:33:40;3.17;;;0.50;;
17201;SDS011;8717;53.588;10.176;2024-02-23T03:36:08;1.17;;;0.50;;
17201;SDS011;8717;53.588;10.176;2024-02-23T03:38:35;1.20;;;0.50;;
17201;SDS011;8717;53.588;10.176;2024-02-23T03:41:02;1.60;;;0.70;;
17201;SDS011;8717;53.588;10.176;2024-02-23T03:43:29;0.50;;;0.50;;
17201;SDS011;8717;53.588;10.176;2024-02-23T03:45:56;1.67;;;0.53;;
17201;SDS011;8717;53.588;10.176;2024-02-23T03:48:23;0.83;;;0.47;;
17201;SDS011;8717;53.588;10.176;2024-02-23T03:50:50;0.50;;;0.50;;
17201;SDS011;8717;53.588;10.176;2024-02-23T03:53:20;0.53;;;0.40;;
17201;SDS011;8717;53.588;10.176;2024-02-23T03:55:48;0.67;;;0.60;;
17201;SDS011;8717;53.588;10.176;2024-02-23T03:58:15;0.80;;;0.40;;
17201;SDS011;8717;53.588;10.176;2024-02-23T04:00:42;0.70;;;0.50;;
17201;SDS011;8717;53.588;10.176;2024-02-23T04:03:10;1.23;;;0.53;;
17201;SDS011;8717;53.588;10.176;2024-02-23T04:05:36;0.80;;;0.50;;
17201;SDS011;8717;53.588;10.176;2024-02-23T04:08:04;0.73;;;0.57;;
17201;SDS011;8717;53.588;10.176;2024-02-23T04:10:32;0.93;;;0.40;;
17201;SDS011;8717;53.588;10.176;2024-02-23T04:12:59;0.97;;;0.40;;
17201;SDS011;8717;53.588;10.176;2024-02-23T04:15:26;0.60;;;0.40;;
17201;SDS011;8717;53.588;10.176;2024-02-23T04:17:53;0.83;;;0.50;;
17201;SDS011;8717;53.588;10.176;2024-02-23T04:20:20;1.83;;;0.50;;
17201;SDS011;8717;53.588;10.176;2024-02-23T04:22:47;1.90;;;0.60;;
17201;SDS011;8717;53.588;10.176;2024-02-23T04:25:14;2.40;;;0.80;;
17201;SDS011;8717;53.588;10.176;2024-02-23T04:27:42;1.80;;;0.90;;
17201;SDS011;8717;53.588;10.176;2024-02-23T04:30:11;2.30;;;0.70;;
17201;SDS011;8717;53.588;10.176;2024-02-23T04:32:38;2.00;;;1.00;;
17201;SDS011;8717;53.588;10.176;2024-02-23T04:35:05;4.23;;;0.80;;
17201;SDS011;8717;53.588;10.176;2024-02-23T04:37:33;2.13;;;0.70;;
17201;SDS011;8717;53.588;10.176;2024-02-23T04:39:59;3.63;;;0.60;;
17201;SDS011;8717;53.588;10.176;2024-02-23T04:42:26;1.80;;;0.63;;
17201;SDS011;8717;53.588;10.176;2024-02-23T04:44:54;0.93;;;0.57;;
17201;SDS011;8717;53.588;10.176;2024-02-23T04:47:21;1.47;;;0.87;;
17201;SDS011;8717;53.588;10.176;2024-02-23T04:49:48;2.80;;;0.97;;
17201;SDS011;8717;53.588;10.176;2024-02-23T04:52:15;2.67;;;0.93;;
17201;SDS011;8717;53.588;10.176;2024-02-23T04:54:42;3.10;;;1.17;;
17201;SDS011;8717;53.588;10.176;2024-02-23T04:57:09;1.40;;;0.93;;
17201;SDS011;8717;53.588;10.176;2024-02-23T04:59:36;2.83;;;1.30;;
17201;SDS011;8717;53.588;10.176;2024-02-23T05:02:04;1.70;;;0.77;;
17201;SDS011;8717;53.588;10.176;2024-02-23T05:04:31;2.23;;;0.90;;
17201;SDS011;8717;53.588;10.176;2024-02-23T05:06:58;1.93;;;0.90;;
17201;SDS011;8717;53.588;10.176;2024-02-23T05:09:26;3.87;;;1.00;;
17201;SDS011;8717;53.588;10.176;2024-02-23T05:11:54;2.17;;;1.10;;
17201;SDS011;8717;53.588;10.176;2024-02-23T05:14:21;1.97;;;1.10;;
17201;SDS011;8717;53.588;10.176;2024-02-23T05:16:47;4.13;;;1.50;;
17201;SDS011;8717;53.588;10.176;2024-02-23T05:19:16;3.43;;;1.20;;
17201;SDS011;8717;53.588;10.176;2024-02-23T05:21:42;4.17;;;1.20;;
17201;SDS011;8717;53.588;10.176;2024-02-23T05:24:10;4.07;;;1.30;;
17201;SDS011;8717;53.588;10.176;2024-02-23T05:26:37;2.97;;;1.20;;
17201;SDS011;8717;53.588;10.176;2024-02-23T05:29:04;4.50;;;1.70;;
17201;SDS011;8717;53.588;10.176;2024-02-23T05:31:43;2.23;;;1.27;;
17201;SDS011;8717;53.588;10.176;2024-02-23T05:34:12;3.33;;;1.50;;
17201;SDS011;8717;53.588;10.176;2024-02-23T05:36:40;6.67;;;2.03;;
17201;SDS011;8717;53.588;10.176;2024-02-23T05:39:08;2.93;;;1.57;;
17201;SDS011;8717;53.588;10.176;2024-02-23T05:41:35;2.73;;;1.57;;
17201;SDS011;8717;53.588;10.176;2024-02-23T05:44:03;4.53;;;1.60;;
17201;SDS011;8717;53.588;10.176;2024-02-23T05:46:33;4.17;;;2.00;;
17201;SDS011;8717;53.588;10.176;2024-02-23T05:49:01;1.97;;;1.40;;
17201;SDS011;8717;53.588;10.176;2024-02-23T05:51:29;4.27;;;1.40;;
17201;SDS011;8717;53.588;10.176;2024-02-23T05:54:03;3.43;;;1.40;;
17201;SDS011;8717;53.588;10.176;2024-02-23T05:56:30;2.97;;;1.10;;
17201;SDS011;8717;53.588;10.176;2024-02-23T05:58:56;4.73;;;1.40;;
17201;SDS011;8717;53.588;10.176;2024-02-23T06:01:23;3.33;;;1.20;;
17201;SDS011;8717;53.588;10.176;2024-02-23T06:03:50;2.37;;;1.33;;
17201;SDS011;8717;53.588;10.176;2024-02-23T06:06:18;3.63;;;1.10;;
17201;SDS011;8717;53.588;10.176;2024-02-23T06:08:48;3.57;;;1.17;;
17201;SDS011;8717;53.588;10.176;2024-02-23T06:11:17;3.23;;;1.17;;
17201;SDS011;8717;53.588;10.176;2024-02-23T06:13:44;2.63;;;1.20;;
17201;SDS011;8717;53.588;10.176;2024-02-23T06:16:11;1.87;;;1.03;;
17201;SDS011;8717;53.588;10.176;2024-02-23T06:18:39;2.27;;;1.03;;
17201;SDS011;8717;53.588;10.176;2024-02-23T06:21:13;2.40;;;1.00;;
17201;SDS011;8717;53.588;10.176;2024-02-23T06:23:40;1.10;;;0.80;;
17201;SDS011;8717;53.588;10.176;2024-02-23T06:26:07;1.90;;;1.03;;
17201;SDS011;8717;53.588;10.176;2024-02-23T06:28:36;2.87;;;1.00;;
17201;SDS011;8717;53.588;10.176;2024-02-23T06:31:04;2.50;;;1.53;;
17201;SDS011;8717;53.588;10.176;2024-02-23T06:33:31;4.33;;;1.30;;
17201;SDS011;8717;53.588;10.176;2024-02-23T06:35:59;3.23;;;1.10;;
17201;SDS011;8717;53.588;10.176;2024-02-23T06:38:26;2.33;;;1.30;;
17201;SDS011;8717;53.588;10.176;2024-02-23T06:40:53;1.93;;;0.90;;
17201;SDS011;8717;53.588;10.176;2024-02-23T06:43:21;3.10;;;1.27;;
17201;SDS011;8717;53.588;10.176;2024-02-23T06:45:50;2.03;;;1.10;;
17201;SDS011;8717;53.588;10.176;2024-02-23T06:48:17;2.97;;;2.33;;
17201;SDS011;8717;53.588;10.176;2024-02-23T06:50:44;3.13;;;1.27;;
17201;SDS011;8717;53.588;10.176;2024-02-23T06:53:12;2.00;;;1.17;;
17201;SDS011;8717;53.588;10.176;2024-02-23T06:55:39;1.73;;;1.30;;
17201;SDS011;8717;53.588;10.176;2024-02-23T06:58:07;4.17;;;1.43;;
17201;SDS011;8717;53.588;10.176;2024-02-23T07:00:35;2.33;;;1.13;;
17201;SDS011;8717;53.588;10.176;2024-02-23T07:03:03;2.70;;;1.40;;
17201;SDS011;8717;53.588;10.176;2024-02-23T07:05:30;1.90;;;1.40;;
17201;SDS011;8717;53.588;10.176;2024-02-23T07:07:58;4.27;;;1.53;;
17201;SDS011;8717;53.588;10.176;2024-02-23T07:10:25;3.60;;;1.60;;
17201;SDS011;8717;53.588;10.176;2024-02-23T07:12:51;3.97;;;1.60;;
17201;SDS011;8717;53.588;10.176;2024-02-23T07:15:21;5.70;;;1.70;;
17201;SDS011;8717;53.588;10.176;2024-02-23T07:17:48;3.67;;;1.57;;
17201;SDS011;8717;53.588;10.176;2024-02-23T07:20:16;4.33;;;2.00;;
17201;SDS011;8717;53.588;10.176;2024-02-23T07:22:43;3.73;;;1.53;;
17201;SDS011;8717;53.588;10.176;2024-02-23T07:25:10;4.53;;;1.67;;
17201;SDS011;8717;53.588;10.176;2024-02-23T07:27:37;3.13;;;1.60;;
17201;SDS011;8717;53.588;10.176;2024-02-23T07:30:05;4.47;;;1.60;;
17201;SDS011;8717;53.588;10.176;2024-02-23T07:32:32;2.57;;;1.53;;
17201;SDS011;8717;53.588;10.176;2024-02-23T07:34:59;3.63;;;1.80;;
17201;SDS011;8717;53.588;10.176;2024-02-23T07:37:27;3.57;;;1.50;;
17201;SDS011;8717;53.588;10.176;2024-02-23T07:39:54;3.73;;;1.70;;
17201;SDS011;8717;53.588;10.176;2024-02-23T07:42:21;2.93;;;1.50;;
17201;SDS011;8717;53.588;10.176;2024-02-23T07:44:48;4.80;;;1.80;;
17201;SDS011;8717;53.588;10.176;2024-02-23T07:47:14;3.20;;;1.73;;
17201;SDS011;8717;53.588;10.176;2024-02-23T07:49:44;2.73;;;1.57;;
17201;SDS011;8717;53.588;10.176;2024-02-23T07:52:10;5.03;;;1.67;;
17201;SDS011;8717;53.588;10.176;2024-02-23T07:54:39;4.27;;;1.77;;
17201;SDS011;8717;53.588;10.176;2024-02-23T07:57:05;5.73;;;2.10;;
17201;SDS011;8717;53.588;10.176;2024-02-23T07:59:32;3.90;;;1.53;;
17201;SDS011;8717;53.588;10.176;2024-02-23T08:02:00;5.57;;;1.73;;
17201;SDS011;8717;53.588;10.176;2024-02-23T08:04:27;4.17;;;2.00;;
17201;SDS011;8717;53.588;10.176;2024-02-23T08:06:53;4.67;;;1.50;;
17201;SDS011;8717;53.588;10.176;2024-02-23T08:09:20;3.17;;;1.80;;
17201;SDS011;8717;53.588;10.176;2024-02-23T08:11:50;4.93;;;1.40;;
17201;SDS011;8717;53.588;10.176;2024-02-23T08:14:19;6.73;;;2.13;;
17201;SDS011;8717;53.588;10.176;2024-02-23T08:16:46;4.37;;;1.50;;
17201;SDS011;8717;53.588;10.176;2024-02-23T08:19:13;7.07;;;1.70;;
17201;SDS011;8717;53.588;10.176;2024-02-23T08:21:40;4.87;;;1.80;;
17201;SDS011;8717;53.588;10.176;2024-02-23T08:24:07;5.07;;;1.57;;
17201;SDS011;8717;53.588;10.176;2024-02-23T08:26:34;3.20;;;1.30;;
17201;SDS011;8717;53.588;10.176;2024-02-23T08:29:04;3.53;;;1.53;;
17201;SDS011;8717;53.588;10.176;2024-02-23T08:31:31;4.97;;;1.50;;
17201;SDS011;8717;53.588;10.176;2024-02-23T08:33:58;4.13;;;1.50;;
17201;SDS011;8717;53.588;10.176;2024-02-23T08:36:25;5.30;;;1.27;;
17201;SDS011;8717;53.588;10.176;2024-02-23T08:38:52;2.13;;;1.17;;
17201;SDS011;8717;53.588;10.176;2024-02-23T08:41:19;6.57;;;1.67;;
17201;SDS011;8717;53.588;10.176;2024-02-23T08:43:45;4.87;;;1.50;;
17201;SDS011;8717;53.588;10.176;2024-02-23T08:46:13;4.97;;;1.67;;
17201;SDS011;8717;53.588;10.176;2024-02-23T08:48:40;6.47;;;1.83;;
17201;SDS011;8717;53.588;10.176;2024-02-23T08:51:07;4.07;;;1.67;;
17201;SDS011;8717;53.588;10.176;2024-02-23T08:53:34;5.10;;;1.80;;
17201;SDS011;8717;53.588;10.176;2024-02-23T08:56:01;2.77;;;1.60;;
17201;SDS011;8717;53.588;10.176;2024-02-23T08:58:27;3.80;;;1.50;;
17201;SDS011;8717;53.588;10.176;2024-02-23T09:00:54;3.00;;;1.30;;
17201;SDS011;8717;53.588;10.176;2024-02-23T09:03:22;3.40;;;1.60;;
17201;SDS011;8717;53.588;10.176;2024-02-23T09:05:49;6.10;;;1.50;;
17201;SDS011;8717;53.588;10.176;2024-02-23T09:08:16;8.07;;;1.60;;
17201;SDS011;8717;53.588;10.176;2024-02-23T09:10:45;3.73;;;1.37;;
17201;SDS011;8717;53.588;10.176;2024-02-23T09:13:12;3.53;;;1.50;;
17201;SDS011;8717;53.588;10.176;2024-02-23T09:15:40;4.80;;;1.40;;
17201;SDS011;8717;53.588;10.176;2024-02-23T09:18:08;6.13;;;1.60;;
17201;SDS011;8717;53.588;10.176;2024-02-23T09:20:36;6.03;;;1.70;;
17201;SDS011;8717;53.588;10.176;2024-02-23T09:23:03;3.30;;;1.30;;
17201;SDS011;8717;53.588;10.176;2024-02-23T09:25:30;5.23;;;1.40;;
17201;SDS011;8717;53.588;10.176;2024-02-23T09:27:57;3.40;;;1.37;;
17201;SDS011;8717;53.588;10.176;2024-02-23T09:30:24;4.40;;;1.47;;
17201;SDS011;8717;53.588;10.176;2024-02-23T09:32:51;3.13;;;1.40;;
17201;SDS011;8717;53.588;10.176;2024-02-23T09:35:18;3.03;;;1.40;;
17201;SDS011;8717;53.588;10.176;2024-02-23T09:37:46;4.97;;;1.70;;
17201;SDS011;8717;53.588;10.176;2024-02-23T09:40:14;5.27;;;1.40;;
17201;SDS011;8717;53.588;10.176;2024-02-23T09:42:41;5.53;;;1.20;;
17201;SDS011;8717;53.588;10.176;2024-02-23T09:45:08;3.63;;;1.30;;
17201;SDS011;8717;53.588;10.176;2024-02-23T09:47:37;4.97;;;1.37;;
17201;SDS011;8717;53.588;10.176;2024-02-23T09:50:05;6.43;;;1.33;;
17201;SDS011;8717;53.588;10.176;2024-02-23T09:52:34;5.67;;;1.30;;
17201;SDS011;8717;53.588;10.176;2024-02-23T09:55:02;4.20;;;1.50;;
17201;SDS011;8717;53.588;10.176;2024-02-23T09:57:29;4.13;;;1.47;;
17201;SDS011;8717;53.588;10.176;2024-02-23T09:59:56;7.30;;;1.43;;
17201;SDS011;8717;53.588;10.176;2024-02-23T10:02:24;2.80;;;1.43;;
17201;SDS011;8717;53.588;10.176;2024-02-23T10:04:51;7.60;;;1.50;;
17201;SDS011;8717;53.588;10.176;2024-02-23T10:07:22;6.97;;;1.33;;
17201;SDS011;8717;53.588;10.176;2024-02-23T10:09:50;5.57;;;1.50;;
17201;SDS011;8717;53.588;10.176;2024-02-23T10:12:18;5.90;;;1.47;;
17201;SDS011;8717;53.588;10.176;2024-02-23T10:14:45;6.00;;;1.40;;
17201;SDS011;8717;53.588;10.176;2024-02-23T10:17:12;5.13;;;1.67;;
17201;SDS011;8717;53.588;10.176;2024-02-23T10:19:38;4.13;;;1.33;;
17201;SDS011;8717;53.588;10.176;2024-02-23T10:22:05;4.80;;;1.27;;
17201;SDS011;8717;53.588;10.176;2024-02-23T10:24:32;2.60;;;1.10;;
17201;SDS011;8717;53.588;10.176;2024-02-23T10:26:59;4.10;;;1.30;;
17201;SDS011;8717;53.588;10.176;2024-02-23T10:29:28;3.90;;;1.00;;
17201;SDS011;8717;53.588;10.176;2024-02-23T10:31:56;4.53;;;1.20;;
17201;SDS011;8717;53.588;10.176;2024-02-23T10:34:23;6.70;;;1.53;;
17201;SDS011;8717;53.588;10.176;2024-02-23T10:36:52;3.73;;;1.10;;
17201;SDS011;8717;53.588;10.176;2024-02-23T10:39:20;5.30;;;1.40;;
17201;SDS011;8717;53.588;10.176;2024-02-23T10:41:53;6.20;;;1.77;;
17201;SDS011;8717;53.588;10.176;2024-02-23T10:44:22;4.43;;;1.20;;
17201;SDS011;8717;53.588;10.176;2024-02-23T10:46:51;5.80;;;1.47;;
17201;SDS011;8717;53.588;10.176;2024-02-23T10:49:19;5.43;;;1.50;;
17201;SDS011;8717;53.588;10.176;2024-02-23T10:51:51;3.73;;;1.30;;
17201;SDS011;8717;53.588;10.176;2024-02-23T10:54:18;1.90;;;0.97;;
17201;SDS011;8717;53.588;10.176;2024-02-23T10:56:47;4.70;;;1.20;;
17201;SDS011;8717;53.588;10.176;2024-02-23T10:59:14;3.80;;;1.40;;
17201;SDS011;8717;53.588;10.176;2024-02-23T11:01:43;2.73;;;1.00;;
17201;SDS011;8717;53.588;10.176;2024-02-23T11:04:14;4.90;;;1.20;;
17201;SDS011;8717;53.588;10.176;2024-02-23T11:06:42;6.07;;;1.13;;
17201;SDS011;8717;53.588;10.176;2024-02-23T11:09:11;2.83;;;1.00;;
17201;SDS011;8717;53.588;10.176;2024-02-23T11:11:39;2.70;;;0.90;;
17201;SDS011;8717;53.588;10.176;2024-02-23T11:14:07;1.93;;;0.90;;
17201;SDS011;8717;53.588;10.176;2024-02-23T11:16:38;4.23;;;1.03;;
17201;SDS011;8717;53.588;10.176;2024-02-23T11:19:06;4.17;;;1.03;;
17201;SDS011;8717;53.588;10.176;2024-02-23T11:21:36;4.53;;;1.03;;
17201;SDS011;8717;53.588;10.176;2024-02-23T11:24:04;3.10;;;1.00;;
17201;SDS011;8717;53.588;10.176;2024-02-23T11:26:32;2.13;;;0.90;;
17201;SDS011;8717;53.588;10.176;2024-02-23T11:29:09;3.37;;;0.90;;
17201;SDS011;8717;53.588;10.176;2024-02-23T11:31:36;3.60;;;1.30;;
17201;SDS011;8717;53.588;10.176;2024-02-23T11:34:10;3.80;;;0.90;;
17201;SDS011;8717;53.588;10.176;2024-02-23T11:36:39;4.80;;;1.23;;
17201;SDS011;8717;53.588;10.176;2024-02-23T11:39:05;3.10;;;0.90;;
17201;SDS011;8717;53.588;10.176;2024-02-23T11:41:32;3.07;;;1.13;;
17201;SDS011;8717;53.588;10.176;2024-02-23T11:43:59;3.00;;;0.90;;
17201;SDS011;8717;53.588;10.176;2024-02-23T11:46:28;3.07;;;1.10;;
17201;SDS011;8717;53.588;10.176;2024-02-23T11:48:55;5.30;;;1.10;;
17201;SDS011;8717;53.588;10.176;2024-02-23T11:51:22;5.07;;;1.47;;
17201;SDS011;8717;53.588;10.176;2024-02-23T11:53:53;3.03;;;0.90;;
17201;SDS011;8717;53.588;10.176;2024-02-23T11:56:23;3.07;;;1.27;;
17201;SDS011;8717;53.588;10.176;2024-02-23T11:58:50;3.23;;;1.03;;
17201;SDS011;8717;53.588;10.176;2024-02-23T12:01:18;3.43;;;0.97;;
17201;SDS011;8717;53.588;10.176;2024-02-23T12:03:44;4.20;;;1.30;;
17201;SDS011;8717;53.588;10.176;2024-02-23T12:06:11;1.70;;;0.60;;
17201;SDS011;8717;53.588;10.176;2024-02-23T12:08:40;4.10;;;0.97;;
17201;SDS011;8717;53.588;10.176;2024-02-23T12:11:11;4.17;;;1.40;;
17201;SDS011;8717;53.588;10.176;2024-02-23T12:13:39;2.50;;;1.47;;
17201;SDS011;8717;53.588;10.176;2024-02-23T12:16:06;4.10;;;1.30;;
17201;SDS011;8717;53.588;10.176;2024-02-23T12:18:34;2.77;;;0.70;;
17201;SDS011;8717;53.588;10.176;2024-02-23T12:21:01;4.43;;;1.27;;
17201;SDS011;8717;53.588;10.176;2024-02-23T12:23:37;3.20;;;0.90;;
17201;SDS011;8717;53.588;10.176;2024-02-23T12:26:07;3.83;;;0.90;;
17201;SDS011;8717;53.588;10.176;2024-02-23T12:28:36;3.73;;;1.00;;
17201;SDS011;8717;53.588;10.176;2024-02-23T12:31:03;3.23;;;0.80;;
17201;SDS011;8717;53.588;10.176;2024-02-23T12:33:31;3.63;;;1.30;;
17201;SDS011;8717;53.588;10.176;2024-02-23T12:35:59;3.67;;;1.00;;
17201;SDS011;8717;53.588;10.176;2024-02-23T12:38:27;3.77;;;1.10;;
17201;SDS011;8717;53.588;10.176;2024-02-23T12:40:54;3.60;;;0.93;;
17201;SDS011;8717;53.588;10.176;2024-02-23T12:43:21;2.57;;;0.80;;
17201;SDS011;8717;53.588;10.176;2024-02-23T12:45:50;1.50;;;0.77;;
17201;SDS011;8717;53.588;10.176;2024-02-23T12:48:18;1.93;;;0.80;;
17201;SDS011;8717;53.588;10.176;2024-02-23T12:50:46;2.17;;;0.80;;
17201;SDS011;8717;53.588;10.176;2024-02-23T12:53:30;2.57;;;0.77;;
17201;SDS011;8717;53.588;10.176;2024-02-23T12:55:58;2.23;;;0.80;;
17201;SDS011;8717;53.588;10.176;2024-02-23T12:58:25;2.73;;;0.93;;
17201;SDS011;8717;53.588;10.176;2024-02-23T13:00:53;2.73;;;0.80;;
17201;SDS011;8717;53.588;10.176;2024-02-23T13:03:20;3.03;;;1.00;;
17201;SDS011;8717;53.588;10.176;2024-02-23T13:05:47;3.03;;;0.80;;
17201;SDS011;8717;53.588;10.176;2024-02-23T13:08:13;2.03;;;1.00;;
17201;SDS011;8717;53.588;10.176;2024-02-23T13:10:40;1.63;;;1.00;;
17201;SDS011;8717;53.588;10.176;2024-02-23T13:13:07;1.43;;;0.80;;
17201;SDS011;8717;53.588;10.176;2024-02-23T13:15:34;1.27;;;0.70;;
17201;SDS011;8717;53.588;10.176;2024-02-23T13:18:03;2.10;;;0.80;;
17201;SDS011;8717;53.588;10.176;2024-02-23T13:20:31;4.63;;;1.20;;
17201;SDS011;8717;53.588;10.176;2024-02-23T13:22:57;2.80;;;1.00;;
17201;SDS011;8717;53.588;10.176;2024-02-23T13:25:24;3.10;;;2.17;;
17201;SDS011;8717;53.588;10.176;2024-02-23T13:27:51;3.80;;;0.80;;
17201;SDS011;8717;53.588;10.176;2024-02-23T13:30:17;2.37;;;0.90;;
17201;SDS011;8717;53.588;10.176;2024-02-23T13:32:44;3.97;;;0.80;;
17201;SDS011;8717;53.588;10.176;2024-02-23T13:35:13;2.33;;;1.00;;
17201;SDS011;8717;53.588;10.176;2024-02-23T13:37:40;1.90;;;0.80;;
17201;SDS011;8717;53.588;10.176;2024-02-23T13:40:07;2.47;;;0.70;;
17201;SDS011;8717;53.588;10.176;2024-02-23T13:42:35;2.20;;;0.60;;
17201;SDS011;8717;53.588;10.176;2024-02-23T13:45:04;3.43;;;0.90;;
17201;SDS011;8717;53.588;10.176;2024-02-23T13:47:31;2.47;;;0.83;;
17201;SDS011;8717;53.588;10.176;2024-02-23T13:49:58;2.23;;;0.70;;
17201;SDS011;8717;53.588;10.176;2024-02-23T13:52:29;7.00;;;2.73;;
17201;SDS011;8717;53.588;10.176;2024-02-23T13:54:56;16.27;;;9.33;;
17201;SDS011;8717;53.588;10.176;2024-02-23T13:57:23;2.70;;;1.57;;
17201;SDS011;8717;53.588;10.176;2024-02-23T13:59:50;1.77;;;1.03;;
17201;SDS011;8717;53.588;10.176;2024-02-23T14:02:16;2.60;;;0.70;;
17201;SDS011;8717;53.588;10.176;2024-02-23T14:04:50;1.60;;;0.70;;
17201;SDS011;8717;53.588;10.176;2024-02-23T14:07:17;4.43;;;3.33;;
17201;SDS011;8717;53.588;10.176;2024-02-23T14:09:45;5.70;;;4.03;;
17201;SDS011;8717;53.588;10.176;2024-02-23T14:12:11;2.93;;;0.90;;
17201;SDS011;8717;53.588;10.176;2024-02-23T14:14:38;5.80;;;3.03;;
17201;SDS011;8717;53.588;10.176;2024-02-23T14:17:05;13.07;;;7.77;;
17201;SDS011;8717;53.588;10.176;2024-02-23T14:19:32;13.90;;;8.77;;
17201;SDS011;8717;53.588;10.176;2024-02-23T14:21:58;7.47;;;5.03;;
17201;SDS011;8717;53.588;10.176;2024-02-23T14:24:25;8.90;;;6.10;;
17201;SDS011;8717;53.588;10.176;2024-02-23T14:26:54;2.97;;;1.10;;
17201;SDS011;8717;53.588;10.176;2024-02-23T14:29:20;5.33;;;3.13;;
17201;SDS011;8717;53.588;10.176;2024-02-23T14:31:47;12.97;;;7.07;;
17201;SDS011;8717;53.588;10.176;2024-02-23T14:34:14;2.93;;;1.50;;
17201;SDS011;8717;53.588;10.176;2024-02-23T14:36:40;2.37;;;1.47;;
17201;SDS011;8717;53.588;10.176;2024-02-23T14:39:09;9.07;;;5.47;;
17201;SDS011;8717;53.588;10.176;2024-02-23T14:41:37;5.37;;;2.57;;
17201;SDS011;8717;53.588;10.176;2024-02-23T14:44:06;7.63;;;4.27;;
17201;SDS011;8717;53.588;10.176;2024-02-23T14:46:32;2.93;;;1.17;;
17201;SDS011;8717;53.588;10.176;2024-02-23T14:48:59;2.60;;;1.00;;
17201;SDS011;8717;53.588;10.176;2024-02-23T14:51:26;2.77;;;1.30;;